LKCT weather

Chotěboř Airport
Chotěboř, Vysočina Region, Czechia

Public forecast

Using degrees Celsius for public forecast. Weather courtesy of forecast.io.

METAR (pilot weather report)

Closest report is Čáslav Air Base, 19.0 nm (35.3 km) NW. Retrieved 2019/08/24 10:00 UTC (12 minutes ago):

LKCV 241000Z 03005KT 350V100 9999 FEW035 BKN230 24/17 Q1023 NOSIG RMK BLU BLU

TAF (pilot weather forecast)

Closest forecast is Čáslav Air Base, 19.0 nm (35.3 km) NW. Retrieved 2019/08/24 06:05 UTC (4 hours ago):

TAF LKCV 240500Z 2406/2506 VRB02KT CAVOK BECMG 2408/2411 03008KT 9999 SCT035 BECMG 2414/2416 09012KT CAVOK TEMPO 2412/2420 7000 SHRA SCT035TCU PROB30 TEMPO 2414/2420 16015G25KT 4000 TSRA BKN035CB BECMG 2421/2423 VRB02KT